createdAt,value
2018-07-16T00:00:13.343Z,22.70
2018-07-16T00:02:40.667Z,22.60
2018-07-16T00:05:08.042Z,22.60
2018-07-16T00:07:35.398Z,22.50
2018-07-16T00:10:02.716Z,22.40
2018-07-16T00:12:30.153Z,22.40
2018-07-16T00:14:57.520Z,22.30
2018-07-16T00:17:24.879Z,22.20
2018-07-16T00:19:52.188Z,22.10
2018-07-16T00:22:19.505Z,22.00
2018-07-16T00:24:46.832Z,22.00
2018-07-16T00:27:14.164Z,22.00
2018-07-16T00:29:41.515Z,21.90
2018-07-16T00:32:08.874Z,21.90
2018-07-16T00:34:36.203Z,21.80
2018-07-16T00:37:03.525Z,21.80
2018-07-16T00:39:30.869Z,21.80
2018-07-16T00:41:58.189Z,21.70
2018-07-16T00:44:25.580Z,21.70
2018-07-16T00:46:52.832Z,21.70
2018-07-16T00:49:20.180Z,21.70
2018-07-16T00:51:47.508Z,21.70
2018-07-16T00:54:14.851Z,21.70
2018-07-16T00:56:42.196Z,21.50
2018-07-16T00:59:09.569Z,21.30
2018-07-16T01:01:36.912Z,21.20
2018-07-16T01:04:04.222Z,21.10
2018-07-16T01:06:31.551Z,21.00
2018-07-16T01:08:58.885Z,20.90
2018-07-16T01:11:26.200Z,20.80
2018-07-16T01:13:53.525Z,20.80
2018-07-16T01:16:20.864Z,20.90
2018-07-16T01:18:48.220Z,21.00
2018-07-16T01:21:15.531Z,21.10
2018-07-16T01:23:42.926Z,21.10
2018-07-16T01:26:11.812Z,21.10
2018-07-16T01:28:39.198Z,21.20
2018-07-16T01:31:06.548Z,21.20
2018-07-16T01:33:33.907Z,21.10
2018-07-16T01:36:01.228Z,21.00
2018-07-16T01:38:28.565Z,20.80
2018-07-16T01:40:55.871Z,20.50
2018-07-16T01:43:23.213Z,20.40
2018-07-16T01:45:50.532Z,20.30
2018-07-16T01:48:17.852Z,20.40
2018-07-16T01:50:45.176Z,20.50
2018-07-16T01:53:12.590Z,20.60
2018-07-16T01:55:39.974Z,20.50
2018-07-16T01:58:07.311Z,20.40
2018-07-16T02:00:45.003Z,20.30
2018-07-16T02:03:12.354Z,20.30
2018-07-16T02:05:39.875Z,20.40
2018-07-16T02:08:07.220Z,20.60
2018-07-16T02:10:34.548Z,20.80
2018-07-16T02:13:01.869Z,20.90
2018-07-16T02:15:29.179Z,21.00
2018-07-16T02:17:56.492Z,21.10
2018-07-16T02:20:23.863Z,21.20
2018-07-16T02:22:51.154Z,21.20
2018-07-16T02:25:18.479Z,21.20
2018-07-16T02:27:45.802Z,21.20
2018-07-16T02:30:13.131Z,21.30
2018-07-16T02:32:40.475Z,21.30
2018-07-16T02:35:07.816Z,21.40
2018-07-16T02:37:35.162Z,21.50
2018-07-16T02:40:02.494Z,21.60
2018-07-16T02:42:29.808Z,21.60
2018-07-16T02:44:57.204Z,21.50
2018-07-16T02:47:24.535Z,21.60
2018-07-16T02:49:51.891Z,21.50
2018-07-16T02:52:19.184Z,21.50
2018-07-16T02:54:46.524Z,21.50
2018-07-16T02:57:13.854Z,21.50
2018-07-16T02:59:41.216Z,21.50
2018-07-16T03:04:35.744Z,21.50
2018-07-16T03:07:03.072Z,21.50
2018-07-16T03:09:30.441Z,21.50
2018-07-16T03:11:57.763Z,21.40
2018-07-16T03:14:25.088Z,21.60
2018-07-16T03:16:52.390Z,21.50
2018-07-16T03:19:19.691Z,21.50
2018-07-16T03:21:47.037Z,21.40
2018-07-16T03:24:14.366Z,21.10
2018-07-16T03:26:41.753Z,20.90
2018-07-16T03:29:09.100Z,20.70
2018-07-16T03:31:36.436Z,20.40
2018-07-16T03:34:03.793Z,20.20
2018-07-16T03:36:31.152Z,20.10
2018-07-16T03:38:58.459Z,20.20
2018-07-16T03:41:25.774Z,20.20
2018-07-16T03:43:53.103Z,20.30
2018-07-16T03:46:20.415Z,20.30
2018-07-16T03:48:47.737Z,20.50
2018-07-16T03:51:15.067Z,20.50
2018-07-16T03:53:42.411Z,20.40
2018-07-16T03:56:09.783Z,20.30
2018-07-16T03:58:37.103Z,20.20
2018-07-16T04:01:04.418Z,20.10
2018-07-16T04:05:58.977Z,20.20
2018-07-16T04:08:26.351Z,20.30
2018-07-16T04:10:53.677Z,20.40
2018-07-16T04:13:21.021Z,20.30
2018-07-16T04:15:48.331Z,20.30
2018-07-16T04:18:15.667Z,20.40
2018-07-16T04:20:42.978Z,20.30
2018-07-16T04:23:10.343Z,20.30
2018-07-16T04:25:37.698Z,20.30
2018-07-16T04:28:05.032Z,20.30
2018-07-16T04:30:32.424Z,20.50
2018-07-16T04:32:59.846Z,20.50
2018-07-16T04:35:27.194Z,20.50
2018-07-16T04:40:21.804Z,20.50
2018-07-16T04:42:49.125Z,20.40
2018-07-16T04:45:16.448Z,20.40
2018-07-16T04:47:43.819Z,20.50
2018-07-16T04:50:11.134Z,20.50
2018-07-16T04:52:38.495Z,20.60
2018-07-16T04:55:06.392Z,20.60
2018-07-16T04:57:34.637Z,20.70
2018-07-16T05:00:02.049Z,20.80
2018-07-16T05:02:29.302Z,20.90
2018-07-16T05:04:56.657Z,21.00
2018-07-16T05:07:23.967Z,21.10
2018-07-16T05:09:51.317Z,21.20
2018-07-16T05:12:18.621Z,21.20
2018-07-16T05:14:45.947Z,21.30
2018-07-16T05:17:13.331Z,21.30
2018-07-16T05:19:40.789Z,21.30
2018-07-16T05:22:08.114Z,21.30
2018-07-16T05:24:35.409Z,21.40
2018-07-16T05:27:02.756Z,21.60
2018-07-16T05:29:30.083Z,21.60
2018-07-16T05:31:57.517Z,21.70
2018-07-16T05:34:24.754Z,21.80
2018-07-16T05:36:52.103Z,22.00
2018-07-16T05:39:19.484Z,22.10
2018-07-16T05:41:46.833Z,22.10
2018-07-16T05:44:14.238Z,22.20
2018-07-16T05:46:41.740Z,22.30
2018-07-16T05:49:09.103Z,22.30
2018-07-16T05:51:36.456Z,22.30
2018-07-16T05:54:03.799Z,22.40
2018-07-16T05:56:31.155Z,22.40
2018-07-16T05:58:58.455Z,22.50
2018-07-16T06:01:25.778Z,22.50
2018-07-16T06:03:53.096Z,22.50
2018-07-16T06:06:20.442Z,22.60
2018-07-16T06:08:47.814Z,22.60
2018-07-16T06:11:15.110Z,22.60
2018-07-16T06:13:42.444Z,22.50
2018-07-16T06:16:09.834Z,22.50
2018-07-16T06:18:37.155Z,22.60
2018-07-16T06:21:04.709Z,22.50
2018-07-16T06:23:32.043Z,22.60
2018-07-16T06:25:59.393Z,22.60
2018-07-16T06:28:26.743Z,22.70
2018-07-16T06:30:54.067Z,22.80
2018-07-16T06:33:21.401Z,22.90
2018-07-16T06:35:48.734Z,23.10
2018-07-16T06:38:16.084Z,23.20
2018-07-16T06:40:43.729Z,23.40
2018-07-16T06:43:10.797Z,23.60
2018-07-16T06:45:38.562Z,23.80
2018-07-16T06:48:05.887Z,23.90
2018-07-16T06:50:33.218Z,23.90
2018-07-16T06:53:00.610Z,24.00
2018-07-16T06:55:27.963Z,24.10
2018-07-16T06:57:55.273Z,24.20
2018-07-16T07:00:22.620Z,24.30
2018-07-16T07:02:49.943Z,24.40
2018-07-16T07:05:17.303Z,24.40
2018-07-16T07:10:11.901Z,24.40
2018-07-16T07:12:39.196Z,24.60
2018-07-16T07:15:06.524Z,24.60
2018-07-16T07:17:33.954Z,24.60
2018-07-16T07:20:01.456Z,24.70
2018-07-16T07:22:28.793Z,24.70
2018-07-16T07:24:56.218Z,24.80
2018-07-16T07:27:23.542Z,24.80
2018-07-16T07:29:50.864Z,24.60
2018-07-16T07:32:18.196Z,24.60
2018-07-16T07:34:45.511Z,24.50
2018-07-16T07:37:12.826Z,24.40
2018-07-16T07:39:40.285Z,24.30
2018-07-16T07:42:07.627Z,24.40
2018-07-16T07:44:34.971Z,24.30
2018-07-16T07:47:02.383Z,24.40
2018-07-16T07:49:29.765Z,24.50
2018-07-16T07:51:57.087Z,24.40
2018-07-16T07:54:24.475Z,24.20
2018-07-16T07:59:19.234Z,23.40
2018-07-16T08:01:46.550Z,23.50
2018-07-16T08:04:14.227Z,23.80
2018-07-16T08:06:41.590Z,24.00
2018-07-16T08:09:08.961Z,24.20
2018-07-16T08:11:36.292Z,24.40
2018-07-16T08:14:03.639Z,24.60
2018-07-16T08:16:31.015Z,24.80
2018-07-16T08:18:58.377Z,25.00
2018-07-16T08:21:25.784Z,25.10
2018-07-16T08:23:53.097Z,25.10
2018-07-16T08:26:20.411Z,25.20
2018-07-16T08:28:47.745Z,25.20
2018-07-16T08:31:15.071Z,25.30
2018-07-16T08:33:42.494Z,25.30
2018-07-16T08:36:09.997Z,25.40
2018-07-16T08:38:37.327Z,25.50
2018-07-16T08:41:04.936Z,25.50
2018-07-16T08:43:32.279Z,25.50
2018-07-16T08:45:59.581Z,25.70
2018-07-16T08:48:26.888Z,25.60
2018-07-16T08:50:54.239Z,25.60
2018-07-16T08:53:21.575Z,25.60
2018-07-16T08:55:48.899Z,25.70
2018-07-16T08:58:16.272Z,25.60
2018-07-16T09:00:43.670Z,25.60
2018-07-16T09:03:11.070Z,25.70
2018-07-16T09:05:38.486Z,25.70
2018-07-16T09:08:05.821Z,25.70
2018-07-16T09:10:33.196Z,25.70
2018-07-16T09:13:00.498Z,25.60
2018-07-16T09:15:27.838Z,25.70
2018-07-16T09:17:55.189Z,25.70
2018-07-16T09:20:22.520Z,25.50
2018-07-16T09:22:49.894Z,25.60
2018-07-16T09:25:17.229Z,25.60
2018-07-16T09:27:44.577Z,25.70
2018-07-16T09:30:11.968Z,25.80
2018-07-16T09:32:39.438Z,25.90
2018-07-16T09:35:06.787Z,25.90
2018-07-16T09:37:34.113Z,25.90
2018-07-16T09:40:01.471Z,26.10
2018-07-16T09:42:28.821Z,26.20
2018-07-16T09:44:56.185Z,26.30
2018-07-16T09:47:23.535Z,26.30
2018-07-16T09:49:50.885Z,26.40
2018-07-16T09:52:18.277Z,26.10
2018-07-16T09:54:45.646Z,25.60
2018-07-16T09:57:12.979Z,25.40
2018-07-16T09:59:40.423Z,25.50
2018-07-16T10:02:07.794Z,25.90
2018-07-16T10:04:35.131Z,26.20
2018-07-16T10:07:02.486Z,26.40
2018-07-16T10:09:29.827Z,26.60
2018-07-16T10:11:57.199Z,26.60
2018-07-16T10:14:24.633Z,26.80
2018-07-16T10:16:52.014Z,26.90
2018-07-16T10:19:19.389Z,27.00
2018-07-16T10:21:46.742Z,27.20
2018-07-16T10:24:14.064Z,27.20
2018-07-16T10:26:42.097Z,27.50
2018-07-16T10:29:09.469Z,27.60
2018-07-16T10:31:36.794Z,27.30
2018-07-16T10:34:04.157Z,26.90
2018-07-16T10:36:31.491Z,26.50
2018-07-16T10:38:58.814Z,26.70
2018-07-16T10:41:26.167Z,27.00
2018-07-16T10:43:53.503Z,27.20
2018-07-16T10:46:20.842Z,27.40
2018-07-16T10:51:15.418Z,27.60
2018-07-16T10:53:42.786Z,27.70
2018-07-16T10:56:10.131Z,27.20
2018-07-16T10:58:37.464Z,26.90
2018-07-16T11:01:05.072Z,26.60
2018-07-16T11:03:32.422Z,26.50
2018-07-16T11:05:59.783Z,26.70
2018-07-16T11:08:27.127Z,27.20
2018-07-16T11:10:54.449Z,27.50
2018-07-16T11:13:21.770Z,27.80
2018-07-16T11:15:49.123Z,28.00
2018-07-16T11:18:16.443Z,28.20
2018-07-16T11:20:43.897Z,28.40
2018-07-16T11:23:11.288Z,28.50
2018-07-16T11:25:38.647Z,28.60
2018-07-16T11:28:06.010Z,28.50
2018-07-16T11:30:33.354Z,28.60
2018-07-16T11:33:00.695Z,28.60
2018-07-16T11:35:28.147Z,28.70
2018-07-16T11:37:55.418Z,28.60
2018-07-16T11:40:22.831Z,28.60
2018-07-16T11:42:50.149Z,28.60
2018-07-16T11:45:17.563Z,28.60
2018-07-16T11:50:12.169Z,28.60
2018-07-16T11:52:39.662Z,28.50
2018-07-16T11:55:07.054Z,28.60
2018-07-16T11:57:34.414Z,28.60
2018-07-16T12:00:01.748Z,28.80
2018-07-16T12:02:29.099Z,29.00
2018-07-16T12:04:56.455Z,29.20
2018-07-16T12:07:23.785Z,29.30
2018-07-16T12:12:18.463Z,29.10
2018-07-16T12:14:45.692Z,29.20
2018-07-16T12:17:13.115Z,29.30
2018-07-16T12:19:40.468Z,29.40
2018-07-16T12:22:07.829Z,29.30
2018-07-16T12:24:35.177Z,29.50
2018-07-16T12:27:02.502Z,29.60
2018-07-16T12:29:29.915Z,29.50
2018-07-16T12:31:57.315Z,29.60
2018-07-16T12:34:24.683Z,29.60
2018-07-16T12:36:52.040Z,29.80
2018-07-16T12:39:19.347Z,30.00
2018-07-16T12:41:46.736Z,30.20
2018-07-16T12:44:14.419Z,30.30
2018-07-16T12:46:41.766Z,30.30
2018-07-16T12:49:09.414Z,30.40
2018-07-16T12:51:36.796Z,30.40
2018-07-16T12:54:04.170Z,30.40
2018-07-16T12:56:31.647Z,30.30
2018-07-16T12:58:59.012Z,30.00
2018-07-16T13:01:26.363Z,30.00
2018-07-16T13:03:53.672Z,30.10
2018-07-16T13:06:20.992Z,30.30
2018-07-16T13:08:48.321Z,30.40
2018-07-16T13:11:15.633Z,30.50
2018-07-16T13:13:42.984Z,30.70
2018-07-16T13:16:10.416Z,30.80
2018-07-16T13:18:37.750Z,30.80
2018-07-16T13:21:05.096Z,30.90
2018-07-16T13:23:32.494Z,31.00
2018-07-16T13:25:59.824Z,31.10
2018-07-16T13:28:27.174Z,30.90
2018-07-16T13:30:54.486Z,30.80
2018-07-16T13:33:21.833Z,31.00
2018-07-16T13:35:49.175Z,31.10
2018-07-16T13:38:16.744Z,31.10
2018-07-16T13:40:44.103Z,31.00
2018-07-16T13:43:11.498Z,31.00
2018-07-16T13:45:39.032Z,31.10
2018-07-16T13:48:06.432Z,31.20
2018-07-16T13:50:33.768Z,31.30
2018-07-16T13:53:01.097Z,31.40
2018-07-16T13:55:28.474Z,31.50
2018-07-16T13:57:55.819Z,31.60
2018-07-16T14:00:23.138Z,31.70
2018-07-16T14:02:50.466Z,31.70
2018-07-16T14:05:17.824Z,31.70
2018-07-16T14:07:45.156Z,31.80
2018-07-16T14:10:12.620Z,31.80
2018-07-16T14:12:39.979Z,31.60
2018-07-16T14:15:07.338Z,31.60
2018-07-16T14:17:34.660Z,31.60
2018-07-16T14:20:02.007Z,31.50
2018-07-16T14:22:29.338Z,31.10
2018-07-16T14:24:56.796Z,30.70
2018-07-16T14:27:24.132Z,30.60
2018-07-16T14:29:51.529Z,30.20
2018-07-16T14:32:18.898Z,29.80
2018-07-16T14:34:46.228Z,29.80
2018-07-16T14:37:13.576Z,29.90
2018-07-16T14:39:41.075Z,30.10
2018-07-16T14:42:08.422Z,30.10
2018-07-16T14:44:35.835Z,30.20
2018-07-16T14:47:03.228Z,30.40
2018-07-16T14:49:30.637Z,30.40
2018-07-16T14:51:57.954Z,30.40
2018-07-16T14:54:25.335Z,30.50
2018-07-16T14:56:52.665Z,30.30
2018-07-16T14:59:20.004Z,29.60
2018-07-16T15:01:47.307Z,29.10
2018-07-16T15:04:14.915Z,28.40
2018-07-16T15:06:42.385Z,28.00
2018-07-16T15:09:09.868Z,27.80
2018-07-16T15:11:37.209Z,27.70
2018-07-16T15:14:04.923Z,27.70
2018-07-16T15:16:32.303Z,27.80
2018-07-16T15:18:59.619Z,27.60
2018-07-16T15:21:27.155Z,27.40
2018-07-16T15:23:54.339Z,27.50
2018-07-16T15:26:21.659Z,27.40
2018-07-16T15:28:48.963Z,27.00
2018-07-16T15:31:16.314Z,27.00
2018-07-16T15:33:43.717Z,27.30
2018-07-16T15:38:38.299Z,27.60
2018-07-16T15:41:05.675Z,27.90
2018-07-16T15:43:33.016Z,28.30
2018-07-16T15:46:00.344Z,28.70
2018-07-16T15:48:27.986Z,29.20
2018-07-16T15:50:55.327Z,29.60
2018-07-16T15:53:22.667Z,29.60
2018-07-16T15:55:49.989Z,29.60
2018-07-16T15:58:17.351Z,29.80
2018-07-16T16:00:44.709Z,30.00
2018-07-16T16:03:12.077Z,30.30
2018-07-16T16:05:39.432Z,30.40
2018-07-16T16:08:06.778Z,30.60
2018-07-16T16:10:34.375Z,30.60
2018-07-16T16:15:28.858Z,30.40
2018-07-16T16:17:56.198Z,30.30
2018-07-16T16:20:23.554Z,30.00
2018-07-16T16:22:50.874Z,29.80
2018-07-16T16:25:18.241Z,29.60
2018-07-16T16:27:45.629Z,29.60
2018-07-16T16:30:13.011Z,29.80
2018-07-16T16:32:40.392Z,30.00
2018-07-16T16:35:07.725Z,29.80
2018-07-16T16:37:35.082Z,29.70
2018-07-16T16:40:02.520Z,29.70
2018-07-16T16:42:29.862Z,30.00
2018-07-16T16:44:57.258Z,30.70
2018-07-16T16:47:24.598Z,31.20
2018-07-16T16:49:52.035Z,31.60
2018-07-16T16:52:19.335Z,31.90
2018-07-16T16:54:46.743Z,31.90
2018-07-16T16:57:14.144Z,31.80
2018-07-16T16:59:41.575Z,31.60
2018-07-16T17:02:08.911Z,31.10
2018-07-16T17:04:36.294Z,30.40
2018-07-16T17:07:03.640Z,29.90
2018-07-16T17:09:30.994Z,29.60
2018-07-16T17:11:58.337Z,29.50
2018-07-16T17:14:25.728Z,29.50
2018-07-16T17:16:53.041Z,29.70
2018-07-16T17:19:20.448Z,30.00
2018-07-16T17:21:48.151Z,30.20
2018-07-16T17:24:15.548Z,30.40
2018-07-16T17:26:42.942Z,30.60
2018-07-16T17:29:10.362Z,31.00
2018-07-16T17:31:37.800Z,31.20
2018-07-16T17:34:05.120Z,31.40
2018-07-16T17:36:32.538Z,32.00
2018-07-16T17:38:59.865Z,32.60
2018-07-16T17:41:27.218Z,33.20
2018-07-16T17:43:54.567Z,33.60
2018-07-16T17:46:21.898Z,33.50
2018-07-16T17:48:49.638Z,33.40
2018-07-16T17:51:16.975Z,33.30
2018-07-16T17:53:44.386Z,33.50
2018-07-16T17:56:11.864Z,33.50
2018-07-16T17:58:39.284Z,33.30
2018-07-16T18:01:06.797Z,33.20
2018-07-16T18:03:34.103Z,32.80
2018-07-16T18:06:01.420Z,32.60
2018-07-16T18:08:28.750Z,32.10
2018-07-16T18:10:56.085Z,31.70
2018-07-16T18:13:23.518Z,31.20
2018-07-16T18:15:50.727Z,30.50
2018-07-16T18:18:18.081Z,29.70
2018-07-16T18:20:45.464Z,29.30
2018-07-16T18:23:12.861Z,28.90
2018-07-16T18:25:40.258Z,28.70
2018-07-16T18:28:07.568Z,28.60
2018-07-16T18:30:34.943Z,28.30
2018-07-16T18:33:02.262Z,28.10
2018-07-16T18:35:29.619Z,28.00
2018-07-16T18:37:56.961Z,28.00
2018-07-16T18:40:24.290Z,27.90
2018-07-16T18:42:51.611Z,27.90
2018-07-16T18:45:18.984Z,27.90
2018-07-16T18:47:46.319Z,27.90
2018-07-16T18:50:13.716Z,27.80
2018-07-16T18:52:41.129Z,27.80
2018-07-16T18:55:08.488Z,27.80
2018-07-16T18:57:35.829Z,27.70
2018-07-16T19:00:04.238Z,27.70
2018-07-16T19:02:31.570Z,27.60
2018-07-16T19:04:58.958Z,27.60
2018-07-16T19:07:26.275Z,27.70
2018-07-16T19:09:53.591Z,27.60
2018-07-16T19:12:20.943Z,27.60
2018-07-16T19:14:48.278Z,27.50
2018-07-16T19:17:15.925Z,27.40
2018-07-16T19:19:43.291Z,27.40
2018-07-16T19:22:10.911Z,27.30
2018-07-16T19:24:38.227Z,27.30
2018-07-16T19:27:05.667Z,27.30
2018-07-16T19:29:32.991Z,27.30
2018-07-16T19:32:00.337Z,27.30
2018-07-16T19:34:27.675Z,27.30
2018-07-16T19:36:55.041Z,27.10
2018-07-16T19:39:22.471Z,27.00
2018-07-16T19:41:49.762Z,26.90
2018-07-16T19:44:17.191Z,26.90
2018-07-16T19:49:11.919Z,26.90
2018-07-16T19:51:39.364Z,26.90
2018-07-16T19:54:06.714Z,26.90
2018-07-16T19:56:34.054Z,26.80
2018-07-16T19:59:01.390Z,26.80
2018-07-16T20:01:28.715Z,26.90
2018-07-16T20:03:56.107Z,26.80
2018-07-16T20:06:23.375Z,26.70
2018-07-16T20:08:50.729Z,26.70
2018-07-16T20:11:18.046Z,26.70
2018-07-16T20:13:45.420Z,26.60
2018-07-16T20:16:12.841Z,26.50
2018-07-16T20:18:40.190Z,26.30
2018-07-16T20:21:07.534Z,26.20
2018-07-16T20:23:34.825Z,25.90
2018-07-16T20:26:02.202Z,25.70
2018-07-16T20:28:29.586Z,25.50
2018-07-16T20:30:56.910Z,25.50
2018-07-16T20:33:25.264Z,25.40
2018-07-16T20:35:52.578Z,25.40
2018-07-16T20:38:19.910Z,25.40
2018-07-16T20:40:47.248Z,25.30
2018-07-16T20:43:14.621Z,25.20
2018-07-16T20:45:42.075Z,25.10
2018-07-16T20:48:09.429Z,25.00
2018-07-16T20:50:36.767Z,24.90
2018-07-16T20:53:04.172Z,24.80
2018-07-16T20:55:31.532Z,24.60
2018-07-16T20:57:58.896Z,24.60
2018-07-16T21:00:26.195Z,24.50
2018-07-16T21:02:53.515Z,24.50
2018-07-16T21:05:20.887Z,24.50
2018-07-16T21:07:48.218Z,24.50
2018-07-16T21:10:15.698Z,24.40
2018-07-16T21:12:43.030Z,24.30
2018-07-16T21:15:10.438Z,24.30
2018-07-16T21:17:37.779Z,24.20
2018-07-16T21:20:05.927Z,24.20
2018-07-16T21:22:33.259Z,24.30
2018-07-16T21:25:00.584Z,24.40
2018-07-16T21:27:27.906Z,24.50
2018-07-16T21:29:55.278Z,24.50
2018-07-16T21:32:22.583Z,24.40
2018-07-16T21:34:49.925Z,24.50
2018-07-16T21:37:17.302Z,24.40
2018-07-16T21:39:44.703Z,24.40
2018-07-16T21:42:12.217Z,24.20
2018-07-16T21:44:40.024Z,24.10
2018-07-16T21:47:07.515Z,23.90
2018-07-16T21:49:34.834Z,23.90
2018-07-16T21:52:02.987Z,23.80
2018-07-16T21:54:30.475Z,23.70
2018-07-16T21:56:57.823Z,23.60
2018-07-16T21:59:25.183Z,23.60
2018-07-16T22:01:52.474Z,23.50
2018-07-16T22:04:19.831Z,23.40
2018-07-16T22:06:47.158Z,23.40
2018-07-16T22:09:14.590Z,23.40
2018-07-16T22:11:42.406Z,23.40
2018-07-16T22:14:10.288Z,23.40
2018-07-16T22:16:37.624Z,23.40
2018-07-16T22:19:05.007Z,23.40
2018-07-16T22:21:32.334Z,23.30
2018-07-16T22:23:59.657Z,23.30
2018-07-16T22:26:27.036Z,23.10
2018-07-16T22:28:54.350Z,23.00
2018-07-16T22:31:21.690Z,22.90
2018-07-16T22:33:49.033Z,22.80
2018-07-16T22:36:16.392Z,22.80
2018-07-16T22:38:43.773Z,22.80
2018-07-16T22:41:11.152Z,22.70
2018-07-16T22:43:38.473Z,22.90
2018-07-16T22:46:05.795Z,22.90
2018-07-16T22:48:33.111Z,22.90
2018-07-16T22:51:00.426Z,22.80
2018-07-16T22:53:27.743Z,22.80
2018-07-16T22:55:55.072Z,22.70
2018-07-16T22:58:22.383Z,22.70
2018-07-16T23:00:49.726Z,22.80
2018-07-16T23:03:17.047Z,22.70
2018-07-16T23:05:44.415Z,22.60
2018-07-16T23:08:12.867Z,22.50
2018-07-16T23:10:40.217Z,22.60
2018-07-16T23:13:07.556Z,22.50
2018-07-16T23:15:34.866Z,22.40
2018-07-16T23:18:02.178Z,22.30
2018-07-16T23:20:29.500Z,22.20
2018-07-16T23:22:56.802Z,22.00
2018-07-16T23:25:24.133Z,22.00
2018-07-16T23:27:51.719Z,22.00
2018-07-16T23:30:19.350Z,22.00
2018-07-16T23:32:46.855Z,22.00
2018-07-16T23:35:14.182Z,22.10
2018-07-16T23:37:41.542Z,22.20
2018-07-16T23:40:08.907Z,22.20
2018-07-16T23:42:36.226Z,22.10
2018-07-16T23:45:03.566Z,22.00
2018-07-16T23:47:30.868Z,22.00
2018-07-16T23:49:58.192Z,22.00
2018-07-16T23:52:25.512Z,22.10
2018-07-16T23:54:52.838Z,22.10
2018-07-16T23:57:20.165Z,22.20
2018-07-16T23:59:47.481Z,22.20
